LIPH/TSF METAR and TAF weather

Enter ICAO airport designator
Station Type Date Time Source
LIPH METAR 2018/12/11 17:50 UTC NOAA

LIPH 111750Z 28004KT CAVOK 07/M05 Q1018


Station Type Date Time Source
LIPH Decoded METAR 2018/12/11 17:50 UTC NOAA

Treviso / S. Angelo, Italy (LIPH) 45-39N 012-11E 23M
Dec 11, 2018 - 12:50 PM EST / 2018.12.11 1750 UTC
Wind: from the W (280 degrees) at 5 MPH (4 KT):0
Visibility: greater than 7 mile(s):0
Temperature: 44 F (7 C)
Dew Point: 23 F (-5 C)
Relative Humidity: 42%
Pressure (altimeter): 30.06 in. Hg (1018 hPa)
ob: LIPH 111750Z 28004KT CAVOK 07/M05 Q1018
cycle: 18

Station Type Date Time Source
LIPH TAF 2018/12/11 18:21 UTC NOAA

TAF LIPH 111700Z 1118/1218 VRB05KT CAVOK


Example: see airport list